Time;durP1;ratioP1;P1;durP2;ratioP2;P2;SDS_P1;SDS_P2;PMS_P1;PMS_P2;Temp;Humidity;BMP_temperature;BMP_pressure;BME280_temperature;BME280_humidity;BME280_pressure;Samples;Min_cycle;Max_cycle;Signal;HPM_P1;HPM_P2
2023/08/30 00:08:19;;;;;;;8.32;6.07;;;14.80;1.00;;;;;;20835650;28;20033;-43
2023/08/30 00:18:20;;;;;;;7.32;5.50;;;14.80;1.00;;;;;;20834466;28;20040;-44
2023/08/30 00:28:21;;;;;;;8.90;5.78;;;14.90;1.00;;;;;;20833780;28;20075;-44
2023/08/30 00:38:21;;;;;;;9.60;6.03;;;14.80;1.00;;;;;;20832708;28;20053;-44
2023/08/30 00:48:22;;;;;;;7.82;5.97;;;14.90;1.00;;;;;;20833363;28;20536;-44
2023/08/30 00:58:23;;;;;;;10.07;6.30;;;15.10;1.00;;;;;;20832702;28;20488;-43
2023/08/30 01:08:23;;;;;;;9.90;6.37;;;15.00;1.00;;;;;;20831296;28;20040;-43
2023/08/30 01:18:28;;;;;;;8.90;7.20;;;15.10;1.00;;;;;;20831165;28;20538;-43
2023/08/30 01:28:31;;;;;;;11.18;7.13;;;15.00;1.00;;;;;;20847130;28;20136;-43
2023/08/30 01:38:33;;;;;;;11.00;7.30;;;15.10;1.00;;;;;;20847375;28;20041;-43
2023/08/30 01:48:35;;;;;;;9.38;6.75;;;15.10;1.00;;;;;;20845649;28;20696;-44
2023/08/30 01:58:36;;;;;;;10.60;7.32;;;15.00;1.00;;;;;;20846421;28;20189;-44
2023/08/30 02:09:09;;;;;;;10.63;7.17;;;15.10;1.00;;;;;;20844610;28;20438;-43
2023/08/30 02:19:09;;;;;;;12.32;8.27;;;14.90;1.00;;;;;;20840955;28;20468;-44
2023/08/30 02:29:10;;;;;;;12.57;8.05;;;14.90;1.00;;;;;;20818655;28;20039;-43
2023/08/30 02:39:14;;;;;;;10.93;7.72;;;14.80;1.00;;;;;;20840642;28;20121;-43
2023/08/30 02:49:14;;;;;;;12.63;8.10;;;14.70;1.00;;;;;;20843363;28;20044;-44
2023/08/30 02:59:15;;;;;;;14.88;8.57;;;14.50;1.00;;;;;;20840414;28;20033;-43
2023/08/30 03:09:15;;;;;;;12.52;8.40;;;14.40;1.00;;;;;;20838988;28;20037;-44
2023/08/30 03:19:17;;;;;;;17.90;9.97;;;14.40;1.00;;;;;;20840613;28;20174;-43
2023/08/30 03:29:18;;;;;;;15.40;9.38;;;14.50;1.00;;;;;;20838606;28;20539;-44
2023/08/30 03:39:18;;;;;;;12.77;8.07;;;14.30;1.00;;;;;;20836643;28;20390;-44
2023/08/30 03:49:19;;;;;;;13.77;8.90;;;14.30;1.00;;;;;;20837412;28;20284;-43
2023/08/30 03:59:19;;;;;;;14.10;9.15;;;14.40;1.00;;;;;;20835976;28;20504;-43
2023/08/30 04:09:20;;;;;;;12.98;8.45;;;14.30;1.00;;;;;;20833605;28;20037;-43
2023/08/30 04:19:21;;;;;;;13.10;8.45;;;14.40;1.00;;;;;;20836440;28;20156;-43
2023/08/30 04:29:22;;;;;;;11.75;7.95;;;14.40;1.00;;;;;;20834556;28;20037;-44
2023/08/30 04:39:22;;;;;;;14.07;8.57;;;14.40;1.00;;;;;;20832483;28;20045;-44
2023/08/30 04:49:25;;;;;;;13.57;8.30;;;14.40;1.00;;;;;;20816080;28;20572;-43
2023/08/30 04:59:25;;;;;;;13.60;8.32;;;14.10;1.00;;;;;;20833176;28;20132;-43
2023/08/30 05:09:26;;;;;;;12.88;7.90;;;14.10;1.00;;;;;;20830935;28;20098;-43
2023/08/30 05:19:27;;;;;;;13.00;7.07;;;14.10;1.00;;;;;;20833433;28;20060;-43
2023/08/30 05:29:27;;;;;;;11.30;7.20;;;14.20;1.00;;;;;;20832674;28;20087;-43
2023/08/30 05:39:28;;;;;;;14.77;7.35;;;14.20;1.00;;;;;;20829891;28;20504;-43
2023/08/30 05:49:28;;;;;;;11.23;8.02;;;14.30;1.00;;;;;;20819491;28;20049;-43
2023/08/30 05:59:29;;;;;;;13.35;8.77;;;14.30;1.00;;;;;;20831381;28;20036;-43
2023/08/30 06:09:29;;;;;;;16.17;10.02;;;14.00;1.00;;;;;;20836221;28;20535;-43
2023/08/30 06:19:30;;;;;;;15.32;9.50;;;13.50;1.00;;;;;;20845429;28;20033;-44
2023/08/30 06:29:31;;;;;;;19.35;10.63;;;13.10;18.30;;;;;;20844187;28;20556;-46
2023/08/30 06:39:36;;;;;;;18.43;11.30;;;12.90;69.40;;;;;;20840159;28;20110;-45
2023/08/30 06:49:36;;;;;;;16.92;11.65;;;13.00;99.90;;;;;;20823873;28;20860;-46
2023/08/30 06:59:37;;;;;;;17.65;11.73;;;13.00;99.90;;;;;;20840925;28;20041;-45
2023/08/30 07:09:37;;;;;;;21.88;10.85;;;13.20;99.90;;;;;;20839017;28;20052;-45
2023/08/30 07:19:38;;;;;;;14.68;10.27;;;13.20;99.90;;;;;;20840104;28;20038;-44
2023/08/30 07:29:43;;;;;;;14.18;9.18;;;13.40;99.90;;;;;;20837368;28;20037;-43
2023/08/30 07:39:44;;;;;;;14.70;9.63;;;13.60;99.90;;;;;;20835162;28;20049;-43
2023/08/30 07:49:44;;;;;;;12.55;8.20;;;13.70;99.90;;;;;;20838408;28;20039;-44
2023/08/30 07:59:45;;;;;;;11.50;7.38;;;13.70;99.90;;;;;;20834872;28;20443;-43
2023/08/30 08:09:45;;;;;;;9.67;7.07;;;13.80;99.90;;;;;;20832786;28;20596;-44
2023/08/30 08:19:46;;;;;;;11.43;8.10;;;13.80;99.90;;;;;;20835971;28;20045;-43
2023/08/30 08:29:46;;;;;;;11.18;7.57;;;13.90;99.90;;;;;;20832732;28;20124;-42
2023/08/30 08:39:49;;;;;;;9.40;7.45;;;14.00;99.90;;;;;;20831554;28;20068;-43
2023/08/30 08:49:51;;;;;;;10.20;7.10;;;14.10;99.90;;;;;;20833706;28;20404;-43
2023/08/30 08:59:51;;;;;;;12.73;7.50;;;14.10;99.90;;;;;;20830364;28;20083;-43
2023/08/30 09:09:54;;;;;;;11.43;8.38;;;14.20;99.90;;;;;;20831402;28;20473;-43
2023/08/30 09:20:08;;;;;;;15.13;10.55;;;14.30;99.90;;;;;;20819369;28;20480;-43
2023/08/30 09:30:10;;;;;;;14.25;9.88;;;14.60;99.90;;;;;;20830148;28;20469;-43
2023/08/30 09:40:11;;;;;;;16.17;12.40;;;14.70;99.90;;;;;;20831188;28;20567;-43
2023/08/30 09:50:11;;;;;;;15.10;12.63;;;15.10;99.90;;;;;;20847474;28;20388;-43
2023/08/30 10:00:12;;;;;;;14.63;12.37;;;15.50;99.90;;;;;;20844669;28;20802;-43
2023/08/30 10:10:13;;;;;;;14.70;8.93;;;16.10;99.90;;;;;;20842601;28;20808;-43
2023/08/30 10:20:14;;;;;;;7.75;5.10;;;16.60;99.90;;;;;;20845258;28;20451;-43
2023/08/30 10:30:17;;;;;;;7.38;3.60;;;16.60;62.50;;;;;;20823477;28;20045;-44
2023/08/30 10:40:19;;;;;;;7.03;4.00;;;16.80;36.00;;;;;;20841094;28;20098;-43
2023/08/30 10:50:32;;;;;;;7.68;3.85;;;16.70;1.00;;;;;;20843146;28;20044;-43
2023/08/30 11:00:33;;;;;;;11.93;3.47;;;17.40;1.00;;;;;;20839630;28;20570;-44
2023/08/30 11:10:34;;;;;;;6.25;2.58;;;17.30;1.00;;;;;;20838212;28;20048;-43
2023/08/30 11:20:34;;;;;;;10.13;2.53;;;17.90;1.00;;;;;;20840079;28;20040;-43
2023/08/30 11:30:40;;;;;;;7.03;2.37;;;18.60;1.00;;;;;;20838087;28;20033;-44
2023/08/30 11:40:41;;;;;;;12.32;2.22;;;18.20;1.00;;;;;;20836478;28;20049;-44
2023/08/30 11:50:43;;;;;;;12.13;2.40;;;18.00;1.00;;;;;;20837991;28;20037;-44
2023/08/30 12:00:44;;;;;;;5.75;1.80;;;18.50;1.00;;;;;;20836176;28;20037;-44
2023/08/30 12:10:46;;;;;;;6.78;1.90;;;19.10;1.00;;;;;;20833318;28;20541;-44
2023/08/30 12:21:13;;;;;;;7.75;1.90;;;19.30;1.00;;;;;;20835699;28;20539;-44
2023/08/30 12:31:13;;;;;;;5.80;1.83;;;19.60;1.00;;;;;;20831678;28;20495;-44
2023/08/30 12:41:14;;;;;;;6.97;1.95;;;20.10;1.00;;;;;;20832028;28;20045;-44
2023/08/30 12:51:15;;;;;;;5.03;1.60;;;19.60;1.00;;;;;;20833817;28;20037;-45
2023/08/30 13:01:15;;;;;;;7.93;2.03;;;19.40;1.00;;;;;;20832688;28;20071;-44
2023/08/30 13:11:16;;;;;;;9.00;2.72;;;18.80;1.00;;;;;;20830804;28;20512;-44
2023/08/30 13:21:17;;;;;;;5.22;1.65;;;18.60;1.00;;;;;;20844786;28;20045;-43
2023/08/30 13:31:18;;;;;;;9.35;2.75;;;18.00;1.00;;;;;;20847102;28;20521;-43
2023/08/30 13:41:18;;;;;;;7.05;2.28;;;17.20;1.00;;;;;;20846557;28;20053;-44
2023/08/30 13:51:26;;;;;;;4.57;2.60;;;16.70;1.00;;;;;;20846448;28;20021;-44
2023/08/30 14:01:26;;;;;;;;;;;16.60;1.00;;;;;;20847187;28;20047;-44
2023/08/30 14:11:27;;;;;;;8.68;2.33;;;16.60;1.00;;;;;;20844340;28;19921;-44
2023/08/30 14:21:27;;;;;;;3.38;0.93;;;16.60;1.00;;;;;;20844541;28;20037;-43
2023/08/30 14:31:29;;;;;;;6.20;1.20;;;17.10;1.00;;;;;;20842711;28;20033;-44
2023/08/30 14:41:32;;;;;;;6.60;1.52;;;17.40;1.00;;;;;;20840063;28;20045;-43
2023/08/30 14:51:32;;;;;;;3.80;0.95;;;17.30;1.00;;;;;;20842280;28;20037;-44
2023/08/30 15:01:33;;;;;;;4.68;1.10;;;17.20;1.00;;;;;;20840522;28;20454;-44
2023/08/30 15:11:33;;;;;;;5.20;1.38;;;17.10;1.00;;;;;;20838150;28;20032;-44
2023/08/30 15:21:36;;;;;;;6.95;1.33;;;17.10;1.00;;;;;;20840743;28;20533;-44
2023/08/30 15:31:36;;;;;;;3.92;1.35;;;17.00;1.00;;;;;;20839792;28;20108;-44
2023/08/30 15:41:37;;;;;;;5.03;1.75;;;17.50;1.00;;;;;;20836556;28;20049;-44
2023/08/30 15:51:37;;;;;;;6.20;1.80;;;17.50;1.00;;;;;;20837309;28;20037;-43
2023/08/30 16:01:38;;;;;;;5.68;1.38;;;17.80;1.00;;;;;;20836480;28;20041;-43
2023/08/30 16:11:38;;;;;;;5.90;1.40;;;17.70;1.00;;;;;;20834351;28;20029;-44
2023/08/30 16:21:39;;;;;;;4.40;1.20;;;17.40;1.00;;;;;;20835796;28;20519;-44
2023/08/30 16:31:40;;;;;;;3.80;1.17;;;17.50;1.00;;;;;;20816333;28;20052;-43
2023/08/30 16:41:40;;;;;;;2.92;0.88;;;17.20;1.00;;;;;;20833343;28;20057;-44
2023/08/30 16:51:41;;;;;;;2.42;1.10;;;17.10;1.00;;;;;;20831709;28;20512;-44
2023/08/30 17:01:42;;;;;;;5.07;0.88;;;17.10;1.00;;;;;;20832155;28;20049;-44
2023/08/30 17:11:43;;;;;;;4.22;0.80;;;16.90;1.00;;;;;;20812589;28;20083;-44
2023/08/30 17:21:44;;;;;;;3.50;1.05;;;16.80;1.00;;;;;;20831931;28;20033;-44
2023/08/30 17:31:45;;;;;;;2.22;0.73;;;16.50;1.00;;;;;;20831700;28;20630;-44
2023/08/30 17:41:46;;;;;;;3.67;1.15;;;16.40;1.00;;;;;;20828841;28;20110;-43
2023/08/30 17:51:47;;;;;;;5.57;1.63;;;16.60;1.00;;;;;;20830395;28;20052;-44
2023/08/30 18:01:47;;;;;;;4.17;0.70;;;16.40;1.00;;;;;;20832682;28;20052;-44
2023/08/30 18:11:48;;;;;;;6.80;0.80;;;16.20;1.00;;;;;;20843211;28;20948;-44
2023/08/30 18:21:49;;;;;;;2.60;0.85;;;15.90;1.00;;;;;;20844544;28;20044;-44
2023/08/30 18:31:49;;;;;;;5.45;1.10;;;15.70;1.00;;;;;;20843920;28;20511;-44
2023/08/30 18:41:50;;;;;;;4.72;1.20;;;15.50;1.00;;;;;;20841285;28;20099;-44
2023/08/30 18:51:50;;;;;;;5.53;1.75;;;15.50;1.00;;;;;;20843209;28;20045;-44
2023/08/30 19:01:51;;;;;;;4.57;0.88;;;15.40;1.00;;;;;;20841689;28;20041;-44
2023/08/30 19:11:51;;;;;;;5.13;1.00;;;15.30;1.00;;;;;;20840215;28;20037;-43
2023/08/30 19:21:52;;;;;;;5.82;1.50;;;15.10;1.00;;;;;;20838952;28;20092;-44
2023/08/30 19:31:53;;;;;;;3.00;1.03;;;15.20;1.00;;;;;;20837914;28;20041;-44
2023/08/30 19:41:53;;;;;;;2.47;1.00;;;15.50;1.00;;;;;;20837064;28;20452;-44
2023/08/30 19:51:54;;;;;;;4.13;0.98;;;15.20;1.00;;;;;;20836598;28;20044;-44
2023/08/30 20:01:54;;;;;;;4.65;0.90;;;14.90;1.00;;;;;;20837048;28;20049;-44
2023/08/30 20:11:55;;;;;;;3.42;0.65;;;14.60;1.00;;;;;;20834461;28;20037;-45
2023/08/30 20:21:55;;;;;;;3.22;0.80;;;14.40;1.00;;;;;;20836067;28;20044;-45
2023/08/30 20:31:56;;;;;;;3.42;0.80;;;14.20;1.00;;;;;;20833835;28;20402;-44
2023/08/30 20:41:57;;;;;;;2.50;0.90;;;14.00;1.00;;;;;;20832384;28;20542;-44
2023/08/30 20:51:57;;;;;;;2.42;1.02;;;13.90;1.00;;;;;;20831948;28;20046;-44
2023/08/30 21:01:58;;;;;;;2.13;0.60;;;13.80;1.00;;;;;;20833614;28;20033;-44
2023/08/30 21:11:58;;;;;;;2.33;0.87;;;13.70;1.00;;;;;;20832008;28;20468;-44
2023/08/30 21:21:59;;;;;;;2.58;0.85;;;13.60;1.00;;;;;;20828743;28;20447;-44
2023/08/30 21:31:59;;;;;;;2.38;0.93;;;13.40;1.00;;;;;;20828035;28;20034;-43
2023/08/30 21:42:00;;;;;;;3.17;1.70;;;13.40;1.00;;;;;;20837053;28;20052;-44
2023/08/30 21:52:00;;;;;;;4.82;2.50;;;13.40;1.00;;;;;;20846779;28;20033;-44
2023/08/30 22:02:01;;;;;;;4.88;3.35;;;13.40;1.00;;;;;;20846416;28;20044;-44
2023/08/30 22:12:03;;;;;;;6.75;3.80;;;13.40;1.00;;;;;;20844778;28;20203;-44
2023/08/30 22:22:04;;;;;;;5.53;3.53;;;13.40;1.00;;;;;;20846087;28;20045;-44
2023/08/30 22:32:05;;;;;;;3.67;2.60;;;13.20;1.00;;;;;;20843131;28;20033;-44
2023/08/30 22:42:05;;;;;;;3.00;2.17;;;13.10;1.00;;;;;;20841159;28;20044;-44
2023/08/30 22:52:06;;;;;;;2.85;1.73;;;13.10;1.00;;;;;;20842207;28;20037;-45
2023/08/30 23:02:07;;;;;;;4.05;1.63;;;13.00;8.30;;;;;;20841378;28;20067;-45
2023/08/30 23:12:08;;;;;;;3.03;1.60;;;12.90;17.80;;;;;;20840346;28;20056;-44
2023/08/30 23:22:08;;;;;;;3.30;1.75;;;13.10;17.60;;;;;;20839126;28;20123;-45
2023/08/30 23:32:09;;;;;;;5.13;1.33;;;13.20;12.20;;;;;;20838116;28;20082;-45
2023/08/30 23:42:09;;;;;;;2.60;1.30;;;13.10;11.20;;;;;;20837134;28;20542;-45
2023/08/30 23:52:10;;;;;;;2.95;1.33;;;13.10;14.30;;;;;;20836628;28;20029;-45
